METAR Data
IDs: Format: Raw Decoded Include TAF

Data at: 2054 UTC 02 Aug 2021

EGHE 021620Z 30010KT 9999 FEW020 18/12 Q1016